sensor_id;sensor_type;location;lat;lon;timestamp;temperature;humidity
3564;DHT22;1796;52.388;13.096;2022-10-16T00:00:56;14.10;99.90
3564;DHT22;1796;52.388;13.096;2022-10-16T00:03:23;14.10;99.90
3564;DHT22;1796;52.388;13.096;2022-10-16T00:05:50;14.20;99.90
3564;DHT22;1796;52.388;13.096;2022-10-16T00:08:17;14.20;99.90
3564;DHT22;1796;52.388;13.096;2022-10-16T00:10:43;14.30;99.90
3564;DHT22;1796;52.388;13.096;2022-10-16T00:13:10;14.30;99.90
3564;DHT22;1796;52.388;13.096;2022-10-16T00:15:38;14.40;99.90
3564;DHT22;1796;52.388;13.096;2022-10-16T00:18:05;14.40;99.90
3564;DHT22;1796;52.388;13.096;2022-10-16T00:20:34;14.50;99.90
3564;DHT22;1796;52.388;13.096;2022-10-16T00:23:02;14.60;99.90
3564;DHT22;1796;52.388;13.096;2022-10-16T00:25:29;14.60;99.90
3564;DHT22;1796;52.388;13.096;2022-10-16T00:27:58;14.70;99.90
3564;DHT22;1796;52.388;13.096;2022-10-16T00:30:25;14.70;99.90
3564;DHT22;1796;52.388;13.096;2022-10-16T00:32:54;14.70;99.90
3564;DHT22;1796;52.388;13.096;2022-10-16T00:35:21;14.80;99.90
3564;DHT22;1796;52.388;13.096;2022-10-16T00:37:48;14.80;99.90
3564;DHT22;1796;52.388;13.096;2022-10-16T00:40:15;14.80;99.90
3564;DHT22;1796;52.388;13.096;2022-10-16T00:42:42;14.80;99.90
3564;DHT22;1796;52.388;13.096;2022-10-16T00:45:09;14.80;99.90
3564;DHT22;1796;52.388;13.096;2022-10-16T00:47:39;14.80;99.90
3564;DHT22;1796;52.388;13.096;2022-10-16T00:50:10;14.80;99.90
3564;DHT22;1796;52.388;13.096;2022-10-16T00:52:40;14.90;99.90
3564;DHT22;1796;52.388;13.096;2022-10-16T00:55:09;14.90;99.90
3564;DHT22;1796;52.388;13.096;2022-10-16T00:57:36;14.90;99.90
3564;DHT22;1796;52.388;13.096;2022-10-16T01:00:06;14.80;99.90
3564;DHT22;1796;52.388;13.096;2022-10-16T01:02:34;14.80;99.90
3564;DHT22;1796;52.388;13.096;2022-10-16T01:05:01;14.80;99.90
3564;DHT22;1796;52.388;13.096;2022-10-16T01:07:36;14.90;99.90
3564;DHT22;1796;52.388;13.096;2022-10-16T01:10:11;14.80;99.90
3564;DHT22;1796;52.388;13.096;2022-10-16T01:12:44;14.70;99.90
3564;DHT22;1796;52.388;13.096;2022-10-16T01:15:18;14.70;99.90
3564;DHT22;1796;52.388;13.096;2022-10-16T01:17:55;14.60;99.90
3564;DHT22;1796;52.388;13.096;2022-10-16T01:20:27;14.50;99.90
3564;DHT22;1796;52.388;13.096;2022-10-16T01:23:07;14.50;99.90
3564;DHT22;1796;52.388;13.096;2022-10-16T01:28:36;14.50;99.90
3564;DHT22;1796;52.388;13.096;2022-10-16T01:31:06;14.40;99.90
3564;DHT22;1796;52.388;13.096;2022-10-16T01:33:37;14.40;99.90
3564;DHT22;1796;52.388;13.096;2022-10-16T01:36:10;14.30;99.90
3564;DHT22;1796;52.388;13.096;2022-10-16T01:38:39;14.30;99.90
3564;DHT22;1796;52.388;13.096;2022-10-16T01:41:09;14.30;99.90
3564;DHT22;1796;52.388;13.096;2022-10-16T01:43:42;14.30;99.90
3564;DHT22;1796;52.388;13.096;2022-10-16T01:46:14;14.40;99.90
3564;DHT22;1796;52.388;13.096;2022-10-16T01:48:43;14.50;99.90
3564;DHT22;1796;52.388;13.096;2022-10-16T01:51:12;14.50;99.90
3564;DHT22;1796;52.388;13.096;2022-10-16T01:53:40;14.60;99.90
3564;DHT22;1796;52.388;13.096;2022-10-16T01:56:11;14.70;99.90
3564;DHT22;1796;52.388;13.096;2022-10-16T01:58:43;14.70;99.90
3564;DHT22;1796;52.388;13.096;2022-10-16T02:01:13;14.80;99.90
3564;DHT22;1796;52.388;13.096;2022-10-16T02:03:43;14.80;99.90
3564;DHT22;1796;52.388;13.096;2022-10-16T02:06:12;14.80;99.90
3564;DHT22;1796;52.388;13.096;2022-10-16T02:08:39;14.80;99.90
3564;DHT22;1796;52.388;13.096;2022-10-16T02:11:10;14.80;99.90
3564;DHT22;1796;52.388;13.096;2022-10-16T02:13:41;14.70;99.90
3564;DHT22;1796;52.388;13.096;2022-10-16T02:16:10;14.70;99.90
3564;DHT22;1796;52.388;13.096;2022-10-16T02:18:38;14.80;99.90
3564;DHT22;1796;52.388;13.096;2022-10-16T02:21:10;14.80;99.90
3564;DHT22;1796;52.388;13.096;2022-10-16T02:23:45;14.80;99.90
3564;DHT22;1796;52.388;13.096;2022-10-16T02:26:21;14.80;99.90
3564;DHT22;1796;52.388;13.096;2022-10-16T02:28:54;14.80;99.90
3564;DHT22;1796;52.388;13.096;2022-10-16T02:31:25;14.70;99.90
3564;DHT22;1796;52.388;13.096;2022-10-16T02:33:55;14.70;99.90
3564;DHT22;1796;52.388;13.096;2022-10-16T02:36:25;14.60;99.90
3564;DHT22;1796;52.388;13.096;2022-10-16T02:38:52;14.60;99.90
3564;DHT22;1796;52.388;13.096;2022-10-16T02:41:20;14.60;99.90
3564;DHT22;1796;52.388;13.096;2022-10-16T02:43:47;14.50;99.90
3564;DHT22;1796;52.388;13.096;2022-10-16T02:46:17;14.50;99.90
3564;DHT22;1796;52.388;13.096;2022-10-16T02:48:44;14.40;99.90
3564;DHT22;1796;52.388;13.096;2022-10-16T02:51:11;14.40;99.90
3564;DHT22;1796;52.388;13.096;2022-10-16T02:53:38;14.30;99.90
3564;DHT22;1796;52.388;13.096;2022-10-16T02:56:05;14.30;99.90
3564;DHT22;1796;52.388;13.096;2022-10-16T02:58:32;14.20;99.90
3564;DHT22;1796;52.388;13.096;2022-10-16T03:00:59;14.10;99.90
3564;DHT22;1796;52.388;13.096;2022-10-16T03:03:27;14.10;99.90
3564;DHT22;1796;52.388;13.096;2022-10-16T03:05:54;14.00;99.90
3564;DHT22;1796;52.388;13.096;2022-10-16T03:08:20;14.00;99.90
3564;DHT22;1796;52.388;13.096;2022-10-16T03:10:49;13.90;99.90
3564;DHT22;1796;52.388;13.096;2022-10-16T03:13:16;13.90;99.90
3564;DHT22;1796;52.388;13.096;2022-10-16T03:15:43;13.80;99.90
3564;DHT22;1796;52.388;13.096;2022-10-16T03:18:10;13.80;99.90
3564;DHT22;1796;52.388;13.096;2022-10-16T03:20:38;13.70;99.90
3564;DHT22;1796;52.388;13.096;2022-10-16T03:23:05;13.70;99.90
3564;DHT22;1796;52.388;13.096;2022-10-16T03:25:33;13.60;99.90
3564;DHT22;1796;52.388;13.096;2022-10-16T03:28:00;13.60;99.90
3564;DHT22;1796;52.388;13.096;2022-10-16T03:30:27;13.60;99.90
3564;DHT22;1796;52.388;13.096;2022-10-16T03:32:54;13.60;99.90
3564;DHT22;1796;52.388;13.096;2022-10-16T03:35:21;13.60;99.90
3564;DHT22;1796;52.388;13.096;2022-10-16T03:37:49;13.60;99.90
3564;DHT22;1796;52.388;13.096;2022-10-16T03:40:17;13.60;99.90
3564;DHT22;1796;52.388;13.096;2022-10-16T03:42:44;13.60;99.90
3564;DHT22;1796;52.388;13.096;2022-10-16T03:45:11;13.70;99.90
3564;DHT22;1796;52.388;13.096;2022-10-16T03:47:38;13.70;99.90
3564;DHT22;1796;52.388;13.096;2022-10-16T03:50:06;13.70;99.90
3564;DHT22;1796;52.388;13.096;2022-10-16T03:52:33;13.70;99.90
3564;DHT22;1796;52.388;13.096;2022-10-16T03:55:01;13.70;99.90
3564;DHT22;1796;52.388;13.096;2022-10-16T03:57:28;13.70;99.90
3564;DHT22;1796;52.388;13.096;2022-10-16T03:59:55;13.60;99.90
3564;DHT22;1796;52.388;13.096;2022-10-16T04:02:22;13.60;99.90
3564;DHT22;1796;52.388;13.096;2022-10-16T04:04:49;13.70;99.90
3564;DHT22;1796;52.388;13.096;2022-10-16T04:07:15;13.60;99.90
3564;DHT22;1796;52.388;13.096;2022-10-16T04:09:42;13.60;99.90
3564;DHT22;1796;52.388;13.096;2022-10-16T04:12:11;13.60;99.90
3564;DHT22;1796;52.388;13.096;2022-10-16T04:14:37;13.60;99.90
3564;DHT22;1796;52.388;13.096;2022-10-16T04:17:04;13.60;99.90
3564;DHT22;1796;52.388;13.096;2022-10-16T04:19:31;13.50;99.90
3564;DHT22;1796;52.388;13.096;2022-10-16T04:21:58;13.50;99.90
3564;DHT22;1796;52.388;13.096;2022-10-16T04:24:25;13.50;99.90
3564;DHT22;1796;52.388;13.096;2022-10-16T04:26:51;13.50;99.90
3564;DHT22;1796;52.388;13.096;2022-10-16T04:29:20;13.50;99.90
3564;DHT22;1796;52.388;13.096;2022-10-16T04:31:47;13.40;99.90
3564;DHT22;1796;52.388;13.096;2022-10-16T04:34:13;13.40;99.90
3564;DHT22;1796;52.388;13.096;2022-10-16T04:36:40;13.30;99.90
3564;DHT22;1796;52.388;13.096;2022-10-16T04:39:07;13.30;99.90
3564;DHT22;1796;52.388;13.096;2022-10-16T04:41:34;13.30;99.90
3564;DHT22;1796;52.388;13.096;2022-10-16T04:44:01;13.20;99.90
3564;DHT22;1796;52.388;13.096;2022-10-16T04:46:29;13.10;99.90
3564;DHT22;1796;52.388;13.096;2022-10-16T04:48:56;13.10;99.90
3564;DHT22;1796;52.388;13.096;2022-10-16T04:51:23;13.10;99.90
3564;DHT22;1796;52.388;13.096;2022-10-16T04:53:51;13.10;99.90
3564;DHT22;1796;52.388;13.096;2022-10-16T04:56:18;13.10;99.90
3564;DHT22;1796;52.388;13.096;2022-10-16T04:58:45;13.10;99.90
3564;DHT22;1796;52.388;13.096;2022-10-16T05:01:12;13.10;99.90
3564;DHT22;1796;52.388;13.096;2022-10-16T05:03:40;13.10;99.90
3564;DHT22;1796;52.388;13.096;2022-10-16T05:06:07;13.20;99.90
3564;DHT22;1796;52.388;13.096;2022-10-16T05:08:34;13.20;99.90
3564;DHT22;1796;52.388;13.096;2022-10-16T05:11:01;13.20;99.90
3564;DHT22;1796;52.388;13.096;2022-10-16T05:13:28;13.20;99.90
3564;DHT22;1796;52.388;13.096;2022-10-16T05:15:54;13.20;99.90
3564;DHT22;1796;52.388;13.096;2022-10-16T05:18:22;13.20;99.90
3564;DHT22;1796;52.388;13.096;2022-10-16T05:20:51;13.30;99.90
3564;DHT22;1796;52.388;13.096;2022-10-16T05:23:18;13.30;99.90
3564;DHT22;1796;52.388;13.096;2022-10-16T05:25:52;13.30;99.90
3564;DHT22;1796;52.388;13.096;2022-10-16T05:28:19;13.20;99.90
3564;DHT22;1796;52.388;13.096;2022-10-16T05:30:46;13.20;99.90
3564;DHT22;1796;52.388;13.096;2022-10-16T05:33:13;13.20;99.90
3564;DHT22;1796;52.388;13.096;2022-10-16T05:35:40;13.10;99.90
3564;DHT22;1796;52.388;13.096;2022-10-16T05:38:08;13.10;99.90
3564;DHT22;1796;52.388;13.096;2022-10-16T05:40:35;13.00;99.90
3564;DHT22;1796;52.388;13.096;2022-10-16T05:43:02;13.00;99.90
3564;DHT22;1796;52.388;13.096;2022-10-16T05:45:29;13.00;99.90
3564;DHT22;1796;52.388;13.096;2022-10-16T05:47:55;13.10;99.90
3564;DHT22;1796;52.388;13.096;2022-10-16T05:50:22;13.10;99.90
3564;DHT22;1796;52.388;13.096;2022-10-16T05:52:49;13.10;99.90
3564;DHT22;1796;52.388;13.096;2022-10-16T05:55:17;13.10;99.90
3564;DHT22;1796;52.388;13.096;2022-10-16T05:57:44;13.20;99.90
3564;DHT22;1796;52.388;13.096;2022-10-16T06:00:11;13.30;99.90
3564;DHT22;1796;52.388;13.096;2022-10-16T06:02:38;13.30;99.90
3564;DHT22;1796;52.388;13.096;2022-10-16T06:05:06;13.30;99.90
3564;DHT22;1796;52.388;13.096;2022-10-16T06:07:34;13.30;99.90
3564;DHT22;1796;52.388;13.096;2022-10-16T06:10:01;13.30;99.90
3564;DHT22;1796;52.388;13.096;2022-10-16T06:12:29;13.40;99.90
3564;DHT22;1796;52.388;13.096;2022-10-16T06:14:56;13.40;99.90
3564;DHT22;1796;52.388;13.096;2022-10-16T06:17:23;13.40;99.90
3564;DHT22;1796;52.388;13.096;2022-10-16T06:19:50;13.40;99.90
3564;DHT22;1796;52.388;13.096;2022-10-16T06:22:17;13.50;99.90
3564;DHT22;1796;52.388;13.096;2022-10-16T06:24:43;13.50;99.90
3564;DHT22;1796;52.388;13.096;2022-10-16T06:27:10;13.60;99.90
3564;DHT22;1796;52.388;13.096;2022-10-16T06:29:38;13.70;99.90
3564;DHT22;1796;52.388;13.096;2022-10-16T06:32:05;13.70;99.90
3564;DHT22;1796;52.388;13.096;2022-10-16T06:34:32;13.70;99.90
3564;DHT22;1796;52.388;13.096;2022-10-16T06:36:59;13.70;99.90
3564;DHT22;1796;52.388;13.096;2022-10-16T06:39:26;13.70;99.90
3564;DHT22;1796;52.388;13.096;2022-10-16T06:41:53;13.80;99.90
3564;DHT22;1796;52.388;13.096;2022-10-16T06:44:19;13.80;99.90
3564;DHT22;1796;52.388;13.096;2022-10-16T06:46:48;13.90;99.90
3564;DHT22;1796;52.388;13.096;2022-10-16T06:49:15;13.90;99.90
3564;DHT22;1796;52.388;13.096;2022-10-16T06:51:46;14.00;99.90
3564;DHT22;1796;52.388;13.096;2022-10-16T06:54:15;14.10;99.90
3564;DHT22;1796;52.388;13.096;2022-10-16T06:56:43;14.10;99.90
3564;DHT22;1796;52.388;13.096;2022-10-16T06:59:10;14.10;99.90
3564;DHT22;1796;52.388;13.096;2022-10-16T07:01:37;14.20;99.90
3564;DHT22;1796;52.388;13.096;2022-10-16T07:04:05;14.30;99.90
3564;DHT22;1796;52.388;13.096;2022-10-16T07:06:33;14.50;99.90
3564;DHT22;1796;52.388;13.096;2022-10-16T07:09:02;14.80;99.90
3564;DHT22;1796;52.388;13.096;2022-10-16T07:11:29;15.00;99.90
3564;DHT22;1796;52.388;13.096;2022-10-16T07:13:56;15.20;99.90
3564;DHT22;1796;52.388;13.096;2022-10-16T07:16:25;15.30;99.90
3564;DHT22;1796;52.388;13.096;2022-10-16T07:18:53;15.30;99.90
3564;DHT22;1796;52.388;13.096;2022-10-16T07:21:26;15.70;99.90
3564;DHT22;1796;52.388;13.096;2022-10-16T07:23:55;15.90;99.90
3564;DHT22;1796;52.388;13.096;2022-10-16T07:26:23;16.10;99.90
3564;DHT22;1796;52.388;13.096;2022-10-16T07:28:50;16.30;99.90
3564;DHT22;1796;52.388;13.096;2022-10-16T07:31:19;16.40;99.90
3564;DHT22;1796;52.388;13.096;2022-10-16T07:33:47;16.40;99.90
3564;DHT22;1796;52.388;13.096;2022-10-16T07:36:15;16.30;99.90
3564;DHT22;1796;52.388;13.096;2022-10-16T07:38:44;16.30;99.90
3564;DHT22;1796;52.388;13.096;2022-10-16T07:41:12;16.30;99.90
3564;DHT22;1796;52.388;13.096;2022-10-16T07:43:40;16.40;99.90
3564;DHT22;1796;52.388;13.096;2022-10-16T07:46:11;16.40;99.90
3564;DHT22;1796;52.388;13.096;2022-10-16T07:48:38;16.40;99.90
3564;DHT22;1796;52.388;13.096;2022-10-16T07:51:06;16.40;99.90
3564;DHT22;1796;52.388;13.096;2022-10-16T07:53:33;16.50;99.90
3564;DHT22;1796;52.388;13.096;2022-10-16T07:56:04;16.50;99.90
3564;DHT22;1796;52.388;13.096;2022-10-16T07:58:32;16.60;99.90
3564;DHT22;1796;52.388;13.096;2022-10-16T08:00:59;16.50;99.90
3564;DHT22;1796;52.388;13.096;2022-10-16T08:03:29;16.60;99.90
3564;DHT22;1796;52.388;13.096;2022-10-16T08:05:57;16.60;99.90
3564;DHT22;1796;52.388;13.096;2022-10-16T08:08:24;16.70;99.90
3564;DHT22;1796;52.388;13.096;2022-10-16T08:10:51;16.90;99.90
3564;DHT22;1796;52.388;13.096;2022-10-16T08:13:20;16.90;99.90
3564;DHT22;1796;52.388;13.096;2022-10-16T08:15:46;17.00;99.90
3564;DHT22;1796;52.388;13.096;2022-10-16T08:18:15;17.10;99.90
3564;DHT22;1796;52.388;13.096;2022-10-16T08:20:42;17.20;99.90
3564;DHT22;1796;52.388;13.096;2022-10-16T08:23:10;17.30;99.90
3564;DHT22;1796;52.388;13.096;2022-10-16T08:25:37;17.40;99.90
3564;DHT22;1796;52.388;13.096;2022-10-16T08:28:05;17.40;99.90
3564;DHT22;1796;52.388;13.096;2022-10-16T08:30:34;17.50;99.90
3564;DHT22;1796;52.388;13.096;2022-10-16T08:33:01;17.60;99.90
3564;DHT22;1796;52.388;13.096;2022-10-16T08:35:28;17.60;99.90
3564;DHT22;1796;52.388;13.096;2022-10-16T08:37:55;17.60;99.90
3564;DHT22;1796;52.388;13.096;2022-10-16T08:40:24;17.60;99.90
3564;DHT22;1796;52.388;13.096;2022-10-16T08:45:54;17.50;99.90
3564;DHT22;1796;52.388;13.096;2022-10-16T08:48:30;17.60;99.90
3564;DHT22;1796;52.388;13.096;2022-10-16T08:51:02;17.50;99.90
3564;DHT22;1796;52.388;13.096;2022-10-16T08:53:33;17.50;99.90
3564;DHT22;1796;52.388;13.096;2022-10-16T08:56:03;17.50;99.90
3564;DHT22;1796;52.388;13.096;2022-10-16T08:58:31;17.50;99.90
3564;DHT22;1796;52.388;13.096;2022-10-16T09:01:01;17.70;99.90
3564;DHT22;1796;52.388;13.096;2022-10-16T09:03:51;17.80;99.90
3564;DHT22;1796;52.388;13.096;2022-10-16T09:06:29;17.70;99.90
3564;DHT22;1796;52.388;13.096;2022-10-16T09:09:18;17.70;99.90
3564;DHT22;1796;52.388;13.096;2022-10-16T09:11:53;17.70;99.90
3564;DHT22;1796;52.388;13.096;2022-10-16T09:14:36;17.80;99.90
3564;DHT22;1796;52.388;13.096;2022-10-16T09:17:20;17.90;99.90
3564;DHT22;1796;52.388;13.096;2022-10-16T09:19:53;18.10;99.90
3564;DHT22;1796;52.388;13.096;2022-10-16T09:22:25;18.20;99.90
3564;DHT22;1796;52.388;13.096;2022-10-16T09:24:54;18.30;99.90
3564;DHT22;1796;52.388;13.096;2022-10-16T09:27:22;18.40;99.90
3564;DHT22;1796;52.388;13.096;2022-10-16T09:29:49;18.40;99.90
3564;DHT22;1796;52.388;13.096;2022-10-16T09:32:19;18.50;99.90
3564;DHT22;1796;52.388;13.096;2022-10-16T09:34:49;18.60;99.90
3564;DHT22;1796;52.388;13.096;2022-10-16T09:37:19;18.70;99.90
3564;DHT22;1796;52.388;13.096;2022-10-16T09:39:48;18.80;99.90
3564;DHT22;1796;52.388;13.096;2022-10-16T09:42:17;18.80;99.90
3564;DHT22;1796;52.388;13.096;2022-10-16T09:44:48;18.90;99.90
3564;DHT22;1796;52.388;13.096;2022-10-16T09:47:19;18.90;99.90
3564;DHT22;1796;52.388;13.096;2022-10-16T09:49:51;18.80;99.90
3564;DHT22;1796;52.388;13.096;2022-10-16T09:52:19;18.70;99.90
3564;DHT22;1796;52.388;13.096;2022-10-16T09:54:50;18.50;99.90
3564;DHT22;1796;52.388;13.096;2022-10-16T09:57:17;18.40;99.90
3564;DHT22;1796;52.388;13.096;2022-10-16T09:59:48;18.50;99.90
3564;DHT22;1796;52.388;13.096;2022-10-16T10:02:18;18.60;99.90
3564;DHT22;1796;52.388;13.096;2022-10-16T10:04:49;18.80;99.90
3564;DHT22;1796;52.388;13.096;2022-10-16T10:07:23;19.10;99.90
3564;DHT22;1796;52.388;13.096;2022-10-16T10:09:50;19.30;99.90
3564;DHT22;1796;52.388;13.096;2022-10-16T10:12:20;19.50;99.90
3564;DHT22;1796;52.388;13.096;2022-10-16T10:14:49;19.70;99.90
3564;DHT22;1796;52.388;13.096;2022-10-16T10:17:19;19.70;99.90
3564;DHT22;1796;52.388;13.096;2022-10-16T10:19:49;19.70;99.90
3564;DHT22;1796;52.388;13.096;2022-10-16T10:22:24;19.50;99.90
3564;DHT22;1796;52.388;13.096;2022-10-16T10:27:59;19.50;99.90
3564;DHT22;1796;52.388;13.096;2022-10-16T10:30:37;19.60;99.90
3564;DHT22;1796;52.388;13.096;2022-10-16T10:33:18;19.70;99.90
3564;DHT22;1796;52.388;13.096;2022-10-16T10:35:54;19.70;99.90
3564;DHT22;1796;52.388;13.096;2022-10-16T10:38:30;19.80;99.90
3564;DHT22;1796;52.388;13.096;2022-10-16T10:41:13;19.80;99.90
3564;DHT22;1796;52.388;13.096;2022-10-16T10:43:55;19.90;99.90
3564;DHT22;1796;52.388;13.096;2022-10-16T10:46:34;19.90;99.90
3564;DHT22;1796;52.388;13.096;2022-10-16T10:49:16;19.90;99.90
3564;DHT22;1796;52.388;13.096;2022-10-16T10:51:53;19.80;99.90
3564;DHT22;1796;52.388;13.096;2022-10-16T10:54:26;19.90;99.90
3564;DHT22;1796;52.388;13.096;2022-10-16T10:56:58;20.00;99.90
3564;DHT22;1796;52.388;13.096;2022-10-16T10:59:59;20.00;99.90
3564;DHT22;1796;52.388;13.096;2022-10-16T11:02:34;20.30;99.90
3564;DHT22;1796;52.388;13.096;2022-10-16T11:05:23;20.40;99.90
3564;DHT22;1796;52.388;13.096;2022-10-16T11:07:53;20.60;99.90
3564;DHT22;1796;52.388;13.096;2022-10-16T11:10:24;20.80;99.90
3564;DHT22;1796;52.388;13.096;2022-10-16T11:12:56;21.10;99.90
3564;DHT22;1796;52.388;13.096;2022-10-16T11:15:28;21.20;99.90
3564;DHT22;1796;52.388;13.096;2022-10-16T11:18:00;21.30;99.90
3564;DHT22;1796;52.388;13.096;2022-10-16T11:20:36;21.30;99.90
3564;DHT22;1796;52.388;13.096;2022-10-16T11:23:10;20.90;99.90
3564;DHT22;1796;52.388;13.096;2022-10-16T11:25:39;20.60;99.90
3564;DHT22;1796;52.388;13.096;2022-10-16T11:28:11;20.50;99.90
3564;DHT22;1796;52.388;13.096;2022-10-16T11:30:41;20.40;99.90
3564;DHT22;1796;52.388;13.096;2022-10-16T11:33:24;20.30;99.90
3564;DHT22;1796;52.388;13.096;2022-10-16T11:35:57;20.20;99.90
3564;DHT22;1796;52.388;13.096;2022-10-16T11:38:29;20.10;99.90
3564;DHT22;1796;52.388;13.096;2022-10-16T11:41:01;20.00;99.90
3564;DHT22;1796;52.388;13.096;2022-10-16T11:43:34;19.90;99.90
3564;DHT22;1796;52.388;13.096;2022-10-16T11:46:07;19.80;99.90
3564;DHT22;1796;52.388;13.096;2022-10-16T11:48:39;19.80;99.90
3564;DHT22;1796;52.388;13.096;2022-10-16T11:51:16;19.70;99.90
3564;DHT22;1796;52.388;13.096;2022-10-16T11:53:53;19.70;99.90
3564;DHT22;1796;52.388;13.096;2022-10-16T11:56:22;19.60;99.90
3564;DHT22;1796;52.388;13.096;2022-10-16T11:58:54;19.60;99.90
3564;DHT22;1796;52.388;13.096;2022-10-16T12:01:30;19.50;99.90
3564;DHT22;1796;52.388;13.096;2022-10-16T12:04:14;19.50;99.90
3564;DHT22;1796;52.388;13.096;2022-10-16T12:06:47;19.50;99.90
3564;DHT22;1796;52.388;13.096;2022-10-16T12:09:20;19.40;99.90
3564;DHT22;1796;52.388;13.096;2022-10-16T12:11:48;19.40;99.90
3564;DHT22;1796;52.388;13.096;2022-10-16T12:14:22;19.30;99.90
3564;DHT22;1796;52.388;13.096;2022-10-16T12:16:54;19.30;99.90
3564;DHT22;1796;52.388;13.096;2022-10-16T12:19:22;19.30;99.90
3564;DHT22;1796;52.388;13.096;2022-10-16T12:21:52;19.50;99.90
3564;DHT22;1796;52.388;13.096;2022-10-16T12:24:42;19.50;99.90
3564;DHT22;1796;52.388;13.096;2022-10-16T12:27:23;19.60;99.90
3564;DHT22;1796;52.388;13.096;2022-10-16T12:29:54;19.60;99.90
3564;DHT22;1796;52.388;13.096;2022-10-16T12:32:28;19.70;99.90
3564;DHT22;1796;52.388;13.096;2022-10-16T12:34:56;19.70;99.90
3564;DHT22;1796;52.388;13.096;2022-10-16T12:37:27;19.80;99.90
3564;DHT22;1796;52.388;13.096;2022-10-16T12:39:56;19.80;99.90
3564;DHT22;1796;52.388;13.096;2022-10-16T12:42:32;19.80;99.90
3564;DHT22;1796;52.388;13.096;2022-10-16T12:45:00;19.80;99.90
3564;DHT22;1796;52.388;13.096;2022-10-16T12:47:46;19.90;99.90
3564;DHT22;1796;52.388;13.096;2022-10-16T12:50:28;19.90;99.90
3564;DHT22;1796;52.388;13.096;2022-10-16T12:52:57;19.90;99.90
3564;DHT22;1796;52.388;13.096;2022-10-16T12:55:26;20.00;99.90
3564;DHT22;1796;52.388;13.096;2022-10-16T12:58:07;20.10;99.90
3564;DHT22;1796;52.388;13.096;2022-10-16T13:00:43;20.30;99.90
3564;DHT22;1796;52.388;13.096;2022-10-16T13:03:43;20.40;99.90
3564;DHT22;1796;52.388;13.096;2022-10-16T13:06:30;20.50;99.90
3564;DHT22;1796;52.388;13.096;2022-10-16T13:09:25;20.60;99.90
3564;DHT22;1796;52.388;13.096;2022-10-16T13:12:13;20.80;99.90
3564;DHT22;1796;52.388;13.096;2022-10-16T13:15:03;21.00;99.90
3564;DHT22;1796;52.388;13.096;2022-10-16T13:17:40;21.00;99.90
3564;DHT22;1796;52.388;13.096;2022-10-16T13:20:16;20.90;99.90
3564;DHT22;1796;52.388;13.096;2022-10-16T13:22:51;20.90;99.90
3564;DHT22;1796;52.388;13.096;2022-10-16T13:25:29;20.80;99.90
3564;DHT22;1796;52.388;13.096;2022-10-16T13:28:00;20.70;99.90
3564;DHT22;1796;52.388;13.096;2022-10-16T13:30:29;20.70;99.90
3564;DHT22;1796;52.388;13.096;2022-10-16T13:33:00;20.50;99.90
3564;DHT22;1796;52.388;13.096;2022-10-16T13:35:29;20.40;99.90
3564;DHT22;1796;52.388;13.096;2022-10-16T13:38:04;20.40;99.90
3564;DHT22;1796;52.388;13.096;2022-10-16T13:40:33;20.30;99.90
3564;DHT22;1796;52.388;13.096;2022-10-16T13:43:00;20.30;99.90
3564;DHT22;1796;52.388;13.096;2022-10-16T13:45:27;20.30;99.90
3564;DHT22;1796;52.388;13.096;2022-10-16T13:48:02;20.30;99.90
3564;DHT22;1796;52.388;13.096;2022-10-16T13:50:29;20.30;99.90
3564;DHT22;1796;52.388;13.096;2022-10-16T13:53:04;20.20;99.90
3564;DHT22;1796;52.388;13.096;2022-10-16T13:55:32;20.30;99.90
3564;DHT22;1796;52.388;13.096;2022-10-16T13:58:07;20.40;99.90
3564;DHT22;1796;52.388;13.096;2022-10-16T14:00:35;20.40;99.90
3564;DHT22;1796;52.388;13.096;2022-10-16T14:03:04;20.40;99.90
3564;DHT22;1796;52.388;13.096;2022-10-16T14:05:31;20.30;99.90
3564;DHT22;1796;52.388;13.096;2022-10-16T14:07:59;20.20;99.90
3564;DHT22;1796;52.388;13.096;2022-10-16T14:10:29;20.10;99.90
3564;DHT22;1796;52.388;13.096;2022-10-16T14:12:59;20.10;99.90
3564;DHT22;1796;52.388;13.096;2022-10-16T14:15:27;20.00;99.90
3564;DHT22;1796;52.388;13.096;2022-10-16T14:17:55;19.90;99.90
3564;DHT22;1796;52.388;13.096;2022-10-16T14:20:26;19.80;99.90
3564;DHT22;1796;52.388;13.096;2022-10-16T14:23:00;19.80;99.90
3564;DHT22;1796;52.388;13.096;2022-10-16T14:25:29;19.80;99.90
3564;DHT22;1796;52.388;13.096;2022-10-16T14:28:00;19.70;99.90
3564;DHT22;1796;52.388;13.096;2022-10-16T14:30:28;19.70;99.90
3564;DHT22;1796;52.388;13.096;2022-10-16T14:32:57;19.60;99.90
3564;DHT22;1796;52.388;13.096;2022-10-16T14:35:26;19.60;99.90
3564;DHT22;1796;52.388;13.096;2022-10-16T14:37:54;19.60;99.90
3564;DHT22;1796;52.388;13.096;2022-10-16T14:40:24;19.50;99.90
3564;DHT22;1796;52.388;13.096;2022-10-16T14:42:51;19.50;99.90
3564;DHT22;1796;52.388;13.096;2022-10-16T14:45:21;19.50;99.90
3564;DHT22;1796;52.388;13.096;2022-10-16T14:47:52;19.40;99.90
3564;DHT22;1796;52.388;13.096;2022-10-16T14:50:20;19.40;99.90
3564;DHT22;1796;52.388;13.096;2022-10-16T14:52:47;19.40;99.90
3564;DHT22;1796;52.388;13.096;2022-10-16T14:55:15;19.30;99.90
3564;DHT22;1796;52.388;13.096;2022-10-16T14:57:43;19.20;99.90
3564;DHT22;1796;52.388;13.096;2022-10-16T15:00:16;19.20;99.90
3564;DHT22;1796;52.388;13.096;2022-10-16T15:02:45;19.20;99.90
3564;DHT22;1796;52.388;13.096;2022-10-16T15:05:15;19.00;99.90
3564;DHT22;1796;52.388;13.096;2022-10-16T15:07:42;19.00;99.90
3564;DHT22;1796;52.388;13.096;2022-10-16T15:10:09;18.90;99.90
3564;DHT22;1796;52.388;13.096;2022-10-16T15:12:36;18.90;99.90
3564;DHT22;1796;52.388;13.096;2022-10-16T15:15:32;18.90;99.90
3564;DHT22;1796;52.388;13.096;2022-10-16T15:18:00;18.80;99.90
3564;DHT22;1796;52.388;13.096;2022-10-16T15:20:29;18.70;99.90
3564;DHT22;1796;52.388;13.096;2022-10-16T15:22:59;18.50;99.90
3564;DHT22;1796;52.388;13.096;2022-10-16T15:25:30;18.40;99.90
3564;DHT22;1796;52.388;13.096;2022-10-16T15:27:58;18.30;99.90
3564;DHT22;1796;52.388;13.096;2022-10-16T15:30:26;18.20;99.90
3564;DHT22;1796;52.388;13.096;2022-10-16T15:32:53;18.10;99.90
3564;DHT22;1796;52.388;13.096;2022-10-16T15:35:21;18.00;99.90
3564;DHT22;1796;52.388;13.096;2022-10-16T15:37:48;17.90;99.90
3564;DHT22;1796;52.388;13.096;2022-10-16T15:40:16;17.90;99.90
3564;DHT22;1796;52.388;13.096;2022-10-16T15:42:44;17.80;99.90
3564;DHT22;1796;52.388;13.096;2022-10-16T15:45:11;17.70;99.90
3564;DHT22;1796;52.388;13.096;2022-10-16T15:47:38;17.60;99.90
3564;DHT22;1796;52.388;13.096;2022-10-16T15:50:08;17.50;99.90
3564;DHT22;1796;52.388;13.096;2022-10-16T15:52:37;17.40;99.90
3564;DHT22;1796;52.388;13.096;2022-10-16T15:55:06;17.40;99.90
3564;DHT22;1796;52.388;13.096;2022-10-16T15:57:33;17.30;99.90
3564;DHT22;1796;52.388;13.096;2022-10-16T15:59:59;17.10;99.90
3564;DHT22;1796;52.388;13.096;2022-10-16T16:02:26;17.00;99.90
3564;DHT22;1796;52.388;13.096;2022-10-16T16:04:53;16.90;99.90
3564;DHT22;1796;52.388;13.096;2022-10-16T16:07:20;16.80;99.90
3564;DHT22;1796;52.388;13.096;2022-10-16T16:09:48;16.70;99.90
3564;DHT22;1796;52.388;13.096;2022-10-16T16:12:15;16.50;99.90